Time;durP1;ratioP1;P1;durP2;ratioP2;P2;SDS_P1;SDS_P2;PMS_P1;PMS_P2;Temp;Humidity;BMP_temperature;BMP_pressure;BME280_temperature;BME280_humidity;BME280_pressure;Samples;Min_cycle;Max_cycle;Signal;HPM_P1;HPM_P2
2023/07/06 00:01:08;;;;;;;;;;;;;;;21.26;49.38;101470.03;5083986;28;19944;-75
2023/07/06 00:03:33;;;;;;;;;;;;;;;21.26;49.36;101467.34;5083811;28;19919;-75
2023/07/06 00:05:58;;;;;;;;;;;;;;;21.25;49.22;101460.25;5052157;28;19913;-75
2023/07/06 00:08:24;;;;;;;;;;;;;;;21.23;49.53;101463.94;5053649;28;19913;-75
2023/07/06 00:10:53;;;;;;;;;;;;;;;21.23;49.34;101463.09;5082325;28;20003;-75
2023/07/06 00:13:20;;;;;;;;;;;;;;;21.22;49.50;101458.72;5050955;28;20015;-76
2023/07/06 00:15:48;;;;;;;;;;;;;;;21.21;49.44;101462.44;5066974;28;19939;-76
2023/07/06 00:18:13;;;;;;;;;;;;;;;21.21;49.48;101457.88;5079703;28;19929;-75
2023/07/06 00:20:38;;;;;;;;;;;;;;;21.21;49.50;101465.16;5051632;28;19920;-75
2023/07/06 00:23:04;;;;;;;;;;;;;;;21.20;49.71;101468.88;5048546;28;19916;-75
2023/07/06 00:25:30;;;;;;;;;;;;;;;21.20;49.58;101463.47;5050272;28;19913;-74
2023/07/06 00:27:57;;;;;;;;;;;;;;;21.19;49.27;101472.56;5051713;28;19967;-75
2023/07/06 00:30:40;;;;;;;;;;;;;;;21.18;49.34;101469.03;5033664;28;19922;-75
2023/07/06 00:33:06;;;;;;;;;;;;;;;21.18;49.34;101473.59;5051075;28;19917;-75
2023/07/06 00:35:33;;;;;;;;;;;;;;;21.17;49.51;101475.47;5050887;28;19923;-76
2023/07/06 00:37:59;;;;;;;;;;;;;;;21.16;49.35;101473.78;5051279;28;19916;-76
2023/07/06 00:40:26;;;;;;;;;;;;;;;21.16;49.39;101478.34;5052079;28;20255;-77
2023/07/06 00:42:51;;;;;;;;;;;;;;;21.16;49.54;101483.75;5083072;28;20468;-76
2023/07/06 00:45:16;;;;;;;;;;;;;;;21.15;49.47;101480.22;5050471;28;19920;-76
2023/07/06 00:47:49;;;;;;;;;;;;;;;21.14;49.42;101483.06;5050952;28;19920;-76
2023/07/06 00:50:21;;;;;;;;;;;;;;;21.14;49.47;101488.47;5047352;28;20394;-76
2023/07/06 00:52:51;;;;;;;;;;;;;;;21.13;49.23;101484.09;5049406;28;19917;-77
2023/07/06 00:55:17;;;;;;;;;;;;;;;21.12;49.36;101485.94;5083787;28;19972;-76
2023/07/06 00:57:43;;;;;;;;;;;;;;;21.11;49.29;101486.97;5049420;28;19917;-76
2023/07/06 01:00:08;;;;;;;;;;;;;;;21.11;49.32;101477.97;5052635;28;20332;-76
2023/07/06 01:02:35;;;;;;;;;;;;;;;21.11;49.28;101480.69;5051002;28;19972;-76
2023/07/06 01:05:04;;;;;;;;;;;;;;;21.10;49.58;101487.97;5067045;28;19932;-76
2023/07/06 01:07:31;;;;;;;;;;;;;;;21.10;49.44;101487.13;5083747;28;19944;-76
2023/07/06 01:09:57;;;;;;;;;;;;;;;21.09;49.49;101488.13;5050339;28;20414;-76
2023/07/06 01:12:24;;;;;;;;;;;;;;;21.09;49.37;101482.72;5049144;28;19913;-77
2023/07/06 01:14:49;;;;;;;;;;;;;;;21.08;49.20;101489.16;5035819;28;19914;-76
2023/07/06 01:17:16;;;;;;;;;;;;;;;21.08;49.46;101481.03;5079277;28;19943;-77
2023/07/06 01:20:00;;;;;;;;;;;;;;;21.05;49.32;101471.41;5050206;28;20274;-76
2023/07/06 01:22:48;;;;;;;;;;;;;;;21.06;49.21;101470.38;5048628;28;19913;-76
2023/07/06 01:25:28;;;;;;;;;;;;;;;21.05;49.45;101467.84;5051297;28;19928;-76
2023/07/06 01:28:11;;;;;;;;;;;;;;;21.05;49.27;101478.66;5095068;28;19920;-76
2023/07/06 01:30:36;;;;;;;;;;;;;;;21.03;49.30;101473.44;5086537;28;19917;-76
2023/07/06 01:33:11;;;;;;;;;;;;;;;21.03;49.39;101478.84;5054380;28;19913;-75
2023/07/06 01:35:42;;;;;;;;;;;;;;;21.03;49.17;101476.16;5052946;28;19970;-76
2023/07/06 01:38:07;;;;;;;;;;;;;;;21.03;49.22;101480.72;5056220;28;19921;-76
2023/07/06 01:40:34;;;;;;;;;;;;;;;21.03;49.30;101480.72;5055020;28;20435;-75
2023/07/06 01:42:59;;;;;;;;;;;;;;;21.02;49.53;101479.84;5053093;28;19940;-75
2023/07/06 01:45:24;;;;;;;;;;;;;;;21.01;49.51;101482.72;5049696;28;19960;-76
2023/07/06 01:47:51;;;;;;;;;;;;;;;21.02;49.52;101479.00;5055089;28;20277;-76
2023/07/06 01:50:18;;;;;;;;;;;;;;;21.00;49.49;101481.03;5082680;28;19917;-76
2023/07/06 01:52:48;;;;;;;;;;;;;;;20.99;49.49;101480.19;5052054;28;19980;-75
2023/07/06 01:55:27;;;;;;;;;;;;;;;20.98;49.35;101478.50;5055100;28;19952;-76
2023/07/06 01:57:55;;;;;;;;;;;;;;;20.99;49.38;101482.06;5052746;28;19923;-76
2023/07/06 02:00:21;;;;;;;;;;;;;;;20.97;49.11;101479.50;5053754;28;19920;-76
2023/07/06 02:02:51;;;;;;;;;;;;;;;20.96;49.19;101481.38;5055364;28;19913;-76
2023/07/06 02:05:17;;;;;;;;;;;;;;;20.96;49.08;101478.66;5052315;28;19929;-76
2023/07/06 02:07:42;;;;;;;;;;;;;;;20.95;49.12;101479.69;5052936;28;19917;-76
2023/07/06 02:10:07;;;;;;;;;;;;;;;20.96;49.08;101478.66;5085516;28;19976;-76
2023/07/06 02:12:32;;;;;;;;;;;;;;;20.95;49.27;101478.84;5050166;28;19913;-75
2023/07/06 02:15:00;;;;;;;;;;;;;;;20.95;49.44;101476.16;5056209;28;19912;-74
2023/07/06 02:17:26;;;;;;;;;;;;;;;20.94;49.20;101469.91;5048731;28;19925;-76
2023/07/06 02:19:51;;;;;;;;;;;;;;;20.94;49.42;101477.13;5054098;28;19966;-76
2023/07/06 02:22:18;;;;;;;;;;;;;;;20.94;49.44;101485.25;5054420;28;19921;-76
2023/07/06 02:24:43;;;;;;;;;;;;;;;20.93;49.28;101483.56;5049869;28;20366;-76
2023/07/06 02:27:10;;;;;;;;;;;;;;;20.93;49.42;101476.28;5053392;28;19920;-76
2023/07/06 02:29:36;;;;;;;;;;;;;;;20.92;49.04;101468.38;5084768;28;19917;-76
2023/07/06 02:32:01;;;;;;;;;;;;;;;20.92;49.52;101473.78;5084365;28;19920;-76
2023/07/06 02:34:26;;;;;;;;;;;;;;;20.90;49.33;101471.25;5051122;28;19944;-76
2023/07/06 02:36:53;;;;;;;;;;;;;;;20.91;49.47;101472.09;5054804;28;19912;-75
2023/07/06 02:39:20;;;;;;;;;;;;;;;20.90;49.36;101465.84;5048883;28;19956;-76
2023/07/06 02:41:45;;;;;;;;;;;;;;;20.90;49.34;101465.84;5086967;28;19958;-76
2023/07/06 02:44:11;;;;;;;;;;;;;;;20.89;49.09;101463.28;5046519;28;19995;-76
2023/07/06 02:46:36;;;;;;;;;;;;;;;20.89;49.37;101472.22;5051388;28;19936;-76
2023/07/06 02:49:03;;;;;;;;;;;;;;;20.88;49.41;101462.44;5055709;28;19924;-76
2023/07/06 02:51:29;;;;;;;;;;;;;;;20.89;49.11;101468.69;5049862;28;20408;-75
2023/07/06 02:53:57;;;;;;;;;;;;;;;20.88;49.22;101459.75;5052728;28;19916;-76
2023/07/06 02:56:22;;;;;;;;;;;;;;;20.87;49.19;101458.06;5054038;28;19913;-76
2023/07/06 02:58:47;;;;;;;;;;;;;;;20.87;49.35;101476.13;5052749;28;19970;-76
2023/07/06 03:01:15;;;;;;;;;;;;;;;20.86;49.11;101471.75;5051947;28;19963;-76
2023/07/06 03:03:40;;;;;;;;;;;;;;;20.86;49.21;101469.88;5053617;28;19980;-76
2023/07/06 03:06:05;;;;;;;;;;;;;;;20.86;49.31;101472.59;5052265;28;19913;-76
2023/07/06 03:08:31;;;;;;;;;;;;;;;20.86;49.37;101471.75;5052442;28;19921;-76
2023/07/06 03:10:56;;;;;;;;;;;;;;;20.86;49.13;101477.16;5083624;28;19916;-76
2023/07/06 03:13:21;;;;;;;;;;;;;;;20.85;49.33;101478.16;5047986;28;19913;-76
2023/07/06 03:15:50;;;;;;;;;;;;;;;20.84;49.34;101473.75;5086966;28;19916;-76
2023/07/06 03:18:18;;;;;;;;;;;;;;;20.84;49.08;101484.56;5047617;28;19970;-76
2023/07/06 03:20:46;;;;;;;;;;;;;;;20.83;49.20;101481.03;5052637;28;19919;-76
2023/07/06 03:23:11;;;;;;;;;;;;;;;20.83;49.20;101477.47;5080193;28;20012;-75
2023/07/06 03:25:36;;;;;;;;;;;;;;;20.83;49.22;101491.00;5084051;28;19917;-76
2023/07/06 03:28:02;;;;;;;;;;;;;;;20.83;49.20;101485.59;5084863;28;19924;-76
2023/07/06 03:30:28;;;;;;;;;;;;;;;20.82;49.33;101481.22;5053219;28;19917;-76
2023/07/06 03:32:54;;;;;;;;;;;;;;;20.82;49.21;101489.31;5053001;28;19920;-75
2023/07/06 03:35:21;;;;;;;;;;;;;;;20.82;49.30;101486.63;5050760;28;19919;-75
2023/07/06 03:37:48;;;;;;;;;;;;;;;20.81;49.13;101488.44;5051160;28;19925;-76
2023/07/06 03:40:13;;;;;;;;;;;;;;;20.81;49.02;101487.59;5048498;28;19937;-75
2023/07/06 03:42:39;;;;;;;;;;;;;;;20.80;49.31;101492.16;5051168;28;19913;-75
2023/07/06 03:45:05;;;;;;;;;;;;;;;20.80;49.02;101486.75;5050144;28;19917;-73
2023/07/06 03:47:32;;;;;;;;;;;;;;;20.80;49.07;101492.16;5051219;28;19913;-75
2023/07/06 03:49:58;;;;;;;;;;;;;;;20.80;49.38;101494.03;5084053;28;19939;-76
2023/07/06 03:52:23;;;;;;;;;;;;;;;20.79;48.96;101493.19;5047603;28;19918;-76
2023/07/06 03:54:49;;;;;;;;;;;;;;;20.79;49.28;101495.88;5052376;28;19963;-76
2023/07/06 03:57:16;;;;;;;;;;;;;;;20.78;48.94;101498.78;5081533;28;19944;-75
2023/07/06 03:59:41;;;;;;;;;;;;;;;20.78;49.19;101494.22;5052672;28;19916;-75
2023/07/06 04:02:06;;;;;;;;;;;;;;;20.78;48.94;101501.47;5083492;28;19923;-75
2023/07/06 04:04:32;;;;;;;;;;;;;;;20.77;48.98;101503.31;5051634;28;19924;-74
2023/07/06 04:07:01;;;;;;;;;;;;;;;20.77;49.00;101497.91;5048210;28;19924;-74
2023/07/06 04:09:28;;;;;;;;;;;;;;;20.77;49.21;101494.34;5048874;28;19963;-75
2023/07/06 04:11:53;;;;;;;;;;;;;;;20.77;48.94;101494.34;5045223;28;19920;-74
2023/07/06 04:14:29;;;;;;;;;;;;;;;20.77;49.24;101505.16;5082631;28;19917;-75
2023/07/06 04:16:54;;;;;;;;;;;;;;;20.77;49.21;101505.16;5081891;28;19921;-73
2023/07/06 04:19:20;;;;;;;;;;;;;;;20.76;49.39;101498.06;5066491;28;19927;-76
2023/07/06 04:21:45;;;;;;;;;;;;;;;20.76;49.07;101507.03;5049445;28;19967;-76
2023/07/06 04:24:11;;;;;;;;;;;;;;;20.77;49.08;101503.31;5081605;28;20325;-73
2023/07/06 04:26:36;;;;;;;;;;;;;;;20.77;49.33;101506.00;5051546;28;20026;-75
2023/07/06 04:29:02;;;;;;;;;;;;;;;20.76;49.20;101501.63;5048616;28;19936;-76
2023/07/06 04:31:27;;;;;;;;;;;;;;;20.78;49.15;101504.16;5052520;28;19920;-76
2023/07/06 04:33:52;;;;;;;;;;;;;;;20.77;49.33;101502.47;5047208;28;20024;-78
2023/07/06 04:36:17;;;;;;;;;;;;;;;20.77;49.48;101505.16;5050246;28;19913;-72
2023/07/06 04:38:43;;;;;;;;;;;;;;;20.77;49.53;101513.25;5048490;28;19920;-74
2023/07/06 04:41:09;;;;;;;;;;;;;;;20.78;49.49;101506.88;5048991;28;19917;-73
2023/07/06 04:43:34;;;;;;;;;;;;;;;20.77;49.64;101503.31;5067297;28;20388;-73
2023/07/06 04:45:59;;;;;;;;;;;;;;;20.78;49.93;101514.97;5049365;28;19913;-73
2023/07/06 04:48:26;;;;;;;;;;;;;;;20.79;49.96;101508.56;5051012;28;19920;-73
2023/07/06 04:50:52;;;;;;;;;;;;;;;20.79;50.05;101509.41;5082169;28;19939;-74
2023/07/06 04:53:17;;;;;;;;;;;;;;;20.79;49.95;101512.09;5049163;28;19921;-74
2023/07/06 04:55:43;;;;;;;;;;;;;;;20.80;50.11;101508.38;5083408;28;19968;-73
2023/07/06 04:58:08;;;;;;;;;;;;;;;20.80;50.16;101513.78;5083387;28;19913;-73
2023/07/06 05:00:34;;;;;;;;;;;;;;;20.81;50.21;101509.22;5051177;28;19921;-74
2023/07/06 05:03:03;;;;;;;;;;;;;;;20.81;50.06;101511.91;5051467;28;19959;-74
2023/07/06 05:05:31;;;;;;;;;;;;;;;20.81;49.98;101510.06;5052366;28;20426;-73
2023/07/06 05:07:57;;;;;;;;;;;;;;;20.82;50.00;101522.59;5050004;28;19978;-76
2023/07/06 05:10:22;;;;;;;;;;;;;;;20.82;50.19;101516.34;5035997;28;20335;-75
2023/07/06 05:12:47;;;;;;;;;;;;;;;20.82;49.93;101527.16;5052101;28;20251;-75
2023/07/06 05:15:14;;;;;;;;;;;;;;;20.81;49.98;101518.16;5087482;28;19913;-78
2023/07/06 05:17:39;;;;;;;;;;;;;;;20.83;50.28;101518.88;5085163;28;19936;-73
2023/07/06 05:20:06;;;;;;;;;;;;;;;20.82;50.03;101519.88;5085067;28;19917;-72
2023/07/06 05:22:31;;;;;;;;;;;;;;;20.83;50.18;101528.84;5054413;28;19913;-71
2023/07/06 05:24:57;;;;;;;;;;;;;;;20.83;50.31;101529.69;5055187;28;19925;-71
2023/07/06 05:27:24;;;;;;;;;;;;;;;20.83;50.40;101532.38;5054881;28;19939;-72
2023/07/06 05:29:49;;;;;;;;;;;;;;;20.84;50.36;101533.22;5084229;28;19995;-72
2023/07/06 05:32:15;;;;;;;;;;;;;;;20.84;50.28;101530.53;5054297;28;19920;-72
2023/07/06 05:34:40;;;;;;;;;;;;;;;20.85;50.28;101532.19;5082493;28;19944;-72
2023/07/06 05:37:05;;;;;;;;;;;;;;;20.84;50.17;101531.34;5052125;28;19921;-72
2023/07/06 05:39:30;;;;;;;;;;;;;;;20.86;50.19;101545.56;5052784;28;20298;-72
2023/07/06 05:41:56;;;;;;;;;;;;;;;20.86;50.45;101547.44;5052362;28;19937;-72
2023/07/06 05:44:21;;;;;;;;;;;;;;;20.86;50.54;101550.13;5054398;28;20064;-72
2023/07/06 05:46:46;;;;;;;;;;;;;;;20.86;50.52;101542.03;5054493;28;19916;-73
2023/07/06 05:49:11;;;;;;;;;;;;;;;20.86;50.28;101542.88;5052998;28;19920;-71
2023/07/06 05:51:36;;;;;;;;;;;;;;;20.87;50.20;101547.25;5055436;28;19917;-71
2023/07/06 05:54:02;;;;;;;;;;;;;;;20.87;50.26;101543.72;5054520;28;19959;-70
2023/07/06 05:56:28;;;;;;;;;;;;;;;20.88;50.25;101553.50;5051666;28;19924;-71
2023/07/06 05:58:54;;;;;;;;;;;;;;;20.88;50.28;101556.22;5051852;28;20001;-71
2023/07/06 06:01:22;;;;;;;;;;;;;;;20.89;50.44;101555.19;5051834;28;19917;-70
2023/07/06 06:03:47;;;;;;;;;;;;;;;20.90;50.43;101562.31;5052567;28;19967;-72
2023/07/06 06:06:12;;;;;;;;;;;;;;;20.88;50.34;101565.16;5053188;28;19913;-71
2023/07/06 06:08:38;;;;;;;;;;;;;;;20.88;50.44;101564.31;5051396;28;19913;-72
2023/07/06 06:11:03;;;;;;;;;;;;;;;20.89;50.47;101566.84;5053655;28;19913;-72
2023/07/06 06:13:30;;;;;;;;;;;;;;;20.90;50.24;101573.97;5051716;28;19924;-71
2023/07/06 06:15:55;;;;;;;;;;;;;;;20.89;50.19;101577.66;5055339;28;19920;-69
2023/07/06 06:18:20;;;;;;;;;;;;;;;20.90;50.10;101584.78;5053860;28;19971;-70
2023/07/06 06:20:47;;;;;;;;;;;;;;;20.91;50.36;101575.66;5056201;28;19939;-71
2023/07/06 06:23:13;;;;;;;;;;;;;;;20.91;50.43;101574.81;5051134;28;19939;-70
2023/07/06 06:25:38;;;;;;;;;;;;;;;20.91;50.04;101585.63;5053659;28;19914;-71
2023/07/06 06:28:04;;;;;;;;;;;;;;;20.91;50.24;101585.63;5085473;28;19920;-70
2023/07/06 06:30:29;;;;;;;;;;;;;;;20.91;50.43;101585.63;5050489;28;19913;-70
2023/07/06 06:32:56;;;;;;;;;;;;;;;20.45;50.03;101507.59;5056605;28;19912;-69
2023/07/06 06:35:22;;;;;;;;;;;;;;;20.91;50.28;101594.56;5049521;28;19924;-69
2023/07/06 06:37:48;;;;;;;;;;;;;;;20.92;50.09;101595.41;5050854;28;20806;-71
2023/07/06 06:40:14;;;;;;;;;;;;;;;20.92;50.11;101595.41;5053000;28;20382;-72
2023/07/06 06:42:39;;;;;;;;;;;;;;;20.92;50.12;101598.13;5050352;28;19924;-71
2023/07/06 06:45:05;;;;;;;;;;;;;;;20.92;50.42;101604.38;5053526;28;19917;-72
2023/07/06 06:47:32;;;;;;;;;;;;;;;20.93;50.43;101605.19;5053722;28;19913;-72
2023/07/06 06:49:57;;;;;;;;;;;;;;;20.94;50.31;101609.59;5050213;28;19956;-72
2023/07/06 06:52:23;;;;;;;;;;;;;;;20.94;50.29;101602.34;5035368;28;19917;-72
2023/07/06 06:54:51;;;;;;;;;;;;;;;20.94;50.07;101613.16;5049975;28;19917;-75
2023/07/06 06:57:16;;;;;;;;;;;;;;;20.95;50.49;101611.31;5046469;28;19921;-76
2023/07/06 06:59:43;;;;;;;;;;;;;;;20.96;50.05;101616.53;5050481;28;19939;-75
2023/07/06 07:02:08;;;;;;;;;;;;;;;20.96;50.18;101613.00;5050023;28;19931;-75
2023/07/06 07:04:33;;;;;;;;;;;;;;;20.97;50.12;101620.09;5084120;28;19917;-76
2023/07/06 07:07:03;;;;;;;;;;;;;;;20.97;50.27;101618.22;5052221;28;19939;-78
2023/07/06 07:09:28;;;;;;;;;;;;;;;20.98;49.96;101621.78;5051001;28;20011;-78
2023/07/06 07:11:53;;;;;;;;;;;;;;;20.98;50.20;101627.19;5050763;28;19928;-74
2023/07/06 07:14:19;;;;;;;;;;;;;;;21.00;50.16;101630.56;5052915;28;19928;-77
2023/07/06 07:16:44;;;;;;;;;;;;;;;20.97;50.14;101631.75;5050425;28;19980;-72
2023/07/06 07:19:09;;;;;;;;;;;;;;;20.99;50.15;101636.16;5052329;28;19924;-76
2023/07/06 07:21:35;;;;;;;;;;;;;;;20.99;50.32;101636.16;5055240;28;19912;-75
2023/07/06 07:24:01;;;;;;;;;;;;;;;20.99;50.28;101637.00;5048505;28;19921;-77
2023/07/06 07:26:26;;;;;;;;;;;;;;;21.00;50.17;101643.25;5052293;28;19917;-77
2023/07/06 07:28:52;;;;;;;;;;;;;;;21.01;50.21;101639.53;5047716;28;19924;-76
2023/07/06 07:31:17;;;;;;;;;;;;;;;21.01;50.51;101644.94;5059898;28;19917;-69
2023/07/06 07:33:43;;;;;;;;;;;;;;;21.01;50.40;101639.53;5048323;28;19986;-75
2023/07/06 07:36:09;;;;;;;;;;;;;;;21.02;50.48;101643.91;5079496;28;19920;-75
2023/07/06 07:38:36;;;;;;;;;;;;;;;21.02;50.30;101646.63;5083039;28;19921;-73
2023/07/06 07:41:01;;;;;;;;;;;;;;;21.02;50.21;101649.31;5049908;28;20678;-74
2023/07/06 07:43:27;;;;;;;;;;;;;;;21.03;50.19;101648.34;5045876;28;19950;-74
2023/07/06 07:45:54;;;;;;;;;;;;;;;21.02;50.52;101649.31;5079960;28;19928;-74
2023/07/06 07:48:19;;;;;;;;;;;;;;;21.01;50.18;101645.78;5050551;28;19917;-76
2023/07/06 07:50:48;;;;;;;;;;;;;;;21.03;50.56;101648.34;5079895;28;19917;-74
2023/07/06 07:53:13;;;;;;;;;;;;;;;21.01;50.51;101653.88;5047870;28;20263;-74
2023/07/06 07:55:40;;;;;;;;;;;;;;;21.02;50.23;101658.28;5048007;28;19936;-75
2023/07/06 07:58:05;;;;;;;;;;;;;;;21.02;50.28;101652.88;5081321;28;19939;-74
2023/07/06 08:00:31;;;;;;;;;;;;;;;21.01;50.44;101653.88;5045834;28;20039;-75
2023/07/06 08:02:56;;;;;;;;;;;;;;;21.02;50.43;101654.72;5044202;28;19921;-75
2023/07/06 08:05:21;;;;;;;;;;;;;;;21.03;50.20;101651.03;5047266;28;19967;-74
2023/07/06 08:07:46;;;;;;;;;;;;;;;21.02;50.36;101655.56;5049399;28;19917;-75
2023/07/06 08:10:12;;;;;;;;;;;;;;;21.03;50.12;101645.63;5046839;28;19916;-75
2023/07/06 08:12:37;;;;;;;;;;;;;;;21.03;50.26;101645.63;5047913;28;19921;-75
2023/07/06 08:15:03;;;;;;;;;;;;;;;21.04;50.42;101650.03;5049696;28;20436;-75
2023/07/06 08:17:29;;;;;;;;;;;;;;;21.04;50.19;101656.28;5078893;28;20420;-74
2023/07/06 08:19:54;;;;;;;;;;;;;;;21.05;50.01;101657.97;5048388;28;19913;-77
2023/07/06 08:22:22;;;;;;;;;;;;;;;21.05;50.18;101657.97;5051607;28;19944;-76
2023/07/06 08:24:47;;;;;;;;;;;;;;;21.04;50.29;101661.69;5077990;28;19917;-75
2023/07/06 08:27:13;;;;;;;;;;;;;;;21.05;50.22;101659.81;5048414;28;19924;-75
2023/07/06 08:29:42;;;;;;;;;;;;;;;21.05;50.09;101660.66;5045910;28;19919;-75
2023/07/06 08:32:08;;;;;;;;;;;;;;;21.07;50.02;101663.19;5049406;28;19927;-76
2023/07/06 08:34:35;;;;;;;;;;;;;;;21.06;50.01;101667.75;5052793;28;19916;-75
2023/07/06 08:37:00;;;;;;;;;;;;;;;21.08;50.17;101675.72;5052432;28;19916;-74
2023/07/06 08:39:25;;;;;;;;;;;;;;;21.08;50.15;101676.56;5052835;28;19967;-74
2023/07/06 08:41:51;;;;;;;;;;;;;;;21.09;49.94;101674.69;5053324;28;19917;-75
2023/07/06 08:44:17;;;;;;;;;;;;;;;21.10;49.87;101676.38;5082983;28;19921;-74
2023/07/06 08:46:45;;;;;;;;;;;;;;;21.10;50.06;101682.63;5052652;28;19913;-74
2023/07/06 08:49:31;;;;;;;;;;;;;;;21.10;50.14;101677.22;5053536;28;19924;-76
2023/07/06 08:52:02;;;;;;;;;;;;;;;21.11;50.02;101684.34;5049581;28;19920;-75
2023/07/06 08:54:27;;;;;;;;;;;;;;;21.12;50.14;101687.91;5051559;28;19939;-76
2023/07/06 08:56:53;;;;;;;;;;;;;;;21.11;50.08;101684.34;5050660;28;19913;-75
2023/07/06 08:59:21;;;;;;;;;;;;;;;21.12;50.13;101686.03;5051131;28;19975;-75
2023/07/06 09:01:47;;;;;;;;;;;;;;;21.13;50.22;101679.63;5056840;28;19984;-74
2023/07/06 09:04:14;;;;;;;;;;;;;;;21.13;50.31;101687.72;5052683;28;19920;-75
2023/07/06 09:06:40;;;;;;;;;;;;;;;21.14;50.08;101691.28;5053435;28;19937;-75
2023/07/06 09:09:07;;;;;;;;;;;;;;;21.14;50.36;101694.81;5051102;28;19917;-75
2023/07/06 09:11:33;;;;;;;;;;;;;;;21.14;50.17;101702.09;5052461;28;19920;-75
2023/07/06 09:14:00;;;;;;;;;;;;;;;21.14;50.06;101700.22;5084788;28;19924;-75
2023/07/06 09:16:25;;;;;;;;;;;;;;;21.15;50.17;101701.94;5053795;28;19920;-76
2023/07/06 09:18:52;;;;;;;;;;;;;;;21.16;50.14;101700.09;5050866;28;19917;-74
2023/07/06 09:21:22;;;;;;;;;;;;;;;21.15;50.37;101695.66;5054421;28;20608;-74
2023/07/06 09:23:47;;;;;;;;;;;;;;;21.16;50.11;101697.38;5051453;28;20378;-74
2023/07/06 09:26:19;;;;;;;;;;;;;;;21.16;50.50;101695.53;5084784;28;19921;-74
2023/07/06 09:28:45;;;;;;;;;;;;;;;21.17;50.41;101704.47;5056297;28;19917;-74
2023/07/06 09:31:16;;;;;;;;;;;;;;;21.17;50.35;101705.31;5047625;28;19927;-74
2023/07/06 09:33:42;;;;;;;;;;;;;;;21.18;50.68;101701.59;5051697;28;19912;-73
2023/07/06 09:36:10;;;;;;;;;;;;;;;21.18;50.61;101706.16;5051286;28;19921;-74
2023/07/06 09:38:42;;;;;;;;;;;;;;;21.18;50.48;101709.72;5053613;28;19920;-74
2023/07/06 09:41:17;;;;;;;;;;;;;;;21.19;50.58;101705.16;5052501;28;19920;-74
2023/07/06 09:43:42;;;;;;;;;;;;;;;21.19;50.52;101711.41;5050012;28;19916;-74
2023/07/06 09:46:08;;;;;;;;;;;;;;;21.19;50.65;101707.84;5049507;28;20024;-78
2023/07/06 09:48:37;;;;;;;;;;;;;;;21.20;50.45;101710.41;5051663;28;19924;-75
2023/07/06 09:51:11;;;;;;;;;;;;;;;21.20;50.46;101713.13;5048986;28;20535;-76
2023/07/06 09:53:39;;;;;;;;;;;;;;;21.20;50.59;101713.13;5049288;28;19913;-75
2023/07/06 09:56:08;;;;;;;;;;;;;;;21.21;50.76;101719.38;5051696;28;19917;-73
2023/07/06 09:58:33;;;;;;;;;;;;;;;21.22;50.72;101712.94;5080705;28;20016;-74
2023/07/06 10:01:03;;;;;;;;;;;;;;;21.23;50.41;101717.31;5050016;28;19947;-75
2023/07/06 10:03:35;;;;;;;;;;;;;;;21.24;50.45;101721.75;5052611;28;19921;-73
2023/07/06 10:06:07;;;;;;;;;;;;;;;21.25;50.73;101722.59;5052242;28;19919;-74
2023/07/06 10:08:44;;;;;;;;;;;;;;;21.25;50.72;101718.03;5035343;28;19917;-77
2023/07/06 10:11:09;;;;;;;;;;;;;;;21.27;50.97;101712.44;5087541;28;19920;-76
2023/07/06 10:13:51;;;;;;;;;;;;;;;21.28;50.64;101722.25;5049714;28;19917;-77
2023/07/06 10:16:23;;;;;;;;;;;;;;;21.30;50.88;101720.22;5051525;28;19912;-71
2023/07/06 10:18:52;;;;;;;;;;;;;;;21.30;50.64;101721.06;5048953;28;20007;-72
2023/07/06 10:21:20;;;;;;;;;;;;;;;21.31;50.83;101716.50;5082388;28;19917;-73
2023/07/06 10:23:50;;;;;;;;;;;;;;;21.33;50.92;101718.09;5052302;28;19917;-73
2023/07/06 10:26:19;;;;;;;;;;;;;;;21.35;50.83;101715.19;5051430;28;19928;-71
2023/07/06 10:29:05;;;;;;;;;;;;;;;21.35;50.76;101715.19;5052100;28;19913;-73
2023/07/06 10:31:34;;;;;;;;;;;;;;;21.36;50.80;101715.03;5050518;28;20421;-73
2023/07/06 10:34:13;;;;;;;;;;;;;;;21.37;50.68;101713.19;5050151;28;19916;-75
2023/07/06 10:36:39;;;;;;;;;;;;;;;21.37;50.65;101716.75;5051695;28;19921;-76
2023/07/06 10:39:34;;;;;;;;;;;;;;;21.37;50.85;101724.00;5052487;28;20295;-74
2023/07/06 10:42:03;;;;;;;;;;;;;;;21.38;50.80;101709.47;5048552;28;19916;-73
2023/07/06 10:44:35;;;;;;;;;;;;;;;21.38;50.87;101713.03;5048513;28;19913;-74
2023/07/06 10:47:00;;;;;;;;;;;;;;;21.39;50.88;101719.28;5045525;28;19916;-75
2023/07/06 10:49:25;;;;;;;;;;;;;;;21.39;50.68;101721.97;5047993;28;19963;-75
2023/07/06 10:51:52;;;;;;;;;;;;;;;21.39;50.89;101713.88;5031696;28;19924;-73
2023/07/06 10:54:18;;;;;;;;;;;;;;;21.40;50.59;101719.09;5044436;28;19943;-73
2023/07/06 10:57:05;;;;;;;;;;;;;;;21.41;50.89;101720.81;5050308;28;19992;-75
2023/07/06 10:59:37;;;;;;;;;;;;;;;21.42;51.01;101722.50;5047591;28;19917;-73
2023/07/06 11:02:23;;;;;;;;;;;;;;;21.42;50.82;101719.78;5044748;28;20087;-73
2023/07/06 11:04:53;;;;;;;;;;;;;;;21.44;51.02;101725.88;5031429;28;19929;-74
2023/07/06 11:07:35;;;;;;;;;;;;;;;21.45;51.19;101730.28;5064834;28;20423;-76
2023/07/06 11:10:12;;;;;;;;;;;;;;;21.45;50.85;101729.41;5049915;28;20383;-77
2023/07/06 11:12:54;;;;;;;;;;;;;;;21.46;51.05;101726.56;5049292;28;19913;-76
2023/07/06 11:15:22;;;;;;;;;;;;;;;21.47;51.12;101722.00;5035052;28;19917;-76
2023/07/06 11:17:48;;;;;;;;;;;;;;;21.48;50.84;101733.66;5049095;28;19925;-76
2023/07/06 11:20:40;;;;;;;;;;;;;;;21.49;50.91;101730.78;5046450;28;20008;-75
2023/07/06 11:23:08;;;;;;;;;;;;;;;21.52;50.84;101729.63;5055660;28;19917;-77
2023/07/06 11:25:34;;;;;;;;;;;;;;;21.53;51.03;101731.31;5078657;28;19920;-76
2023/07/06 11:28:02;;;;;;;;;;;;;;;21.55;50.81;101727.44;5050119;28;19936;-76
2023/07/06 11:30:31;;;;;;;;;;;;;;;21.57;50.69;101732.66;5080176;28;19921;-74
2023/07/06 11:33:16;;;;;;;;;;;;;;;21.58;50.93;101728.94;5046120;28;19939;-76
2023/07/06 11:35:59;;;;;;;;;;;;;;;21.60;50.97;101733.19;5045535;28;19993;-74
2023/07/06 11:38:30;;;;;;;;;;;;;;;21.62;51.02;101725.75;5046766;28;19976;-75
2023/07/06 11:41:12;;;;;;;;;;;;;;;21.62;51.04;101727.59;5047407;28;19993;-75
2023/07/06 11:43:56;;;;;;;;;;;;;;;21.62;50.91;101733.88;5080849;28;19932;-74
2023/07/06 11:46:22;;;;;;;;;;;;;;;21.64;50.77;101728.28;5046925;28;19935;-75
2023/07/06 11:48:50;;;;;;;;;;;;;;;21.63;51.04;101732.84;5049356;28;19921;-74
2023/07/06 11:51:18;;;;;;;;;;;;;;;21.63;51.07;101746.38;5050939;28;19972;-75
2023/07/06 11:56:19;;;;;;;;;;;;;;;21.66;51.16;101743.34;5050176;28;19917;-75
2023/07/06 11:58:55;;;;;;;;;;;;;;;21.69;51.10;101742.16;5086221;28;19923;-73
2023/07/06 12:01:32;;;;;;;;;;;;;;;21.70;51.14;101750.09;5049076;28;20234;-75
2023/07/06 12:04:00;;;;;;;;;;;;;;;21.71;50.78;101748.28;5079327;28;19921;-74
2023/07/06 12:06:25;;;;;;;;;;;;;;;21.71;50.95;101738.28;5049351;28;19976;-74
2023/07/06 12:08:50;;;;;;;;;;;;;;;21.71;51.09;101741.00;5044370;28;19924;-75
2023/07/06 12:11:19;;;;;;;;;;;;;;;21.73;51.14;101743.53;5048556;28;19917;-74
2023/07/06 12:13:45;;;;;;;;;;;;;;;21.71;51.95;101746.41;5048027;28;19920;-76
2023/07/06 12:16:21;;;;;;;;;;;;;;;21.66;52.57;101746.06;5050495;28;19989;-74
2023/07/06 12:18:59;;;;;;;;;;;;;;;21.64;52.42;101733.69;5048786;28;20213;-75
2023/07/06 12:21:29;;;;;;;;;;;;;;;21.61;52.81;101740.28;5046302;28;19972;-76
2023/07/06 12:24:02;;;;;;;;;;;;;;;21.60;52.75;101741.31;5050824;28;20048;-75
2023/07/06 12:26:29;;;;;;;;;;;;;;;21.58;52.70;101746.06;5048207;28;19956;-74
2023/07/06 12:28:55;;;;;;;;;;;;;;;21.58;52.89;101742.47;5079053;28;19959;-76
2023/07/06 12:31:21;;;;;;;;;;;;;;;21.57;52.69;101744.34;5032663;28;19913;-76
2023/07/06 12:33:46;;;;;;;;;;;;;;;21.56;52.77;101756.19;5053002;28;19924;-75
2023/07/06 12:36:13;;;;;;;;;;;;;;;21.55;53.09;101759.06;5079737;28;19920;-76
2023/07/06 12:38:38;;;;;;;;;;;;;;;21.55;53.12;101759.06;5049162;28;19925;-76
2023/07/06 12:41:11;;;;;;;;;;;;;;;21.54;52.86;101760.91;5046125;28;19923;-76